Box Elder, Montana
Current Conditions -  °F | °C
As of 1:53 PM on Monday 24 Nov 2014 (Local Time) from KHVR Reporting Station
Clear Clear  
Wind Chill: 33°   Ceiling: Unl
Heat Index: 39°   Visibility: 10mi
Dew Point: 25°   Wind: 9mph
Humidity: 57%   Direction: 290°WNW
Pressure: 30.08"   Gusts: NA
Location:  48.32°N, 110.01°W
Report Text: KHVR 242053Z AUTO 29008KT 10SM CLR 04/M04 A3008 RMK AO2 SLP205 T00391039 58002
Loading
Personal Weather Stations






























Interactive Weather Map New forecast layout! Learn more

10-Day Weather Forecast

Advertisements
Track Severe Weather on mobile